Time;durP1;ratioP1;P1;durP2;ratioP2;P2;SDS_P1;SDS_P2;PMS_P1;PMS_P2;Temp;Humidity;BMP_temperature;BMP_pressure;BME280_temperature;BME280_humidity;BME280_pressure;Samples;Min_cycle;Max_cycle;Signal;HPM_P1;HPM_P2
2023/04/10 00:01:40;;;;;;;14.40;10.15;;;;;;;10.64;97.01;102102.59;5045514;28;20017;-59
2023/04/10 00:04:05;;;;;;;14.20;9.30;;;;;;;10.59;97.19;102095.63;5044193;28;20037;-58
2023/04/10 00:06:31;;;;;;;14.23;10.35;;;;;;;10.64;97.17;102094.69;5045215;28;20100;-59
2023/04/10 00:08:57;;;;;;;13.27;9.57;;;;;;;10.56;98.07;102082.47;5045237;28;20132;-59
2023/04/10 00:11:24;;;;;;;13.57;9.73;;;;;;;10.55;98.44;102080.75;5022926;28;20049;-59
2023/04/10 00:13:49;;;;;;;14.63;9.40;;;;;;;10.53;98.81;102079.88;5025089;28;20108;-57
2023/04/10 00:16:14;;;;;;;13.27;9.45;;;;;;;10.53;98.81;102071.97;5025257;28;20532;-59
2023/04/10 00:18:40;;;;;;;15.02;9.07;;;;;;;10.48;99.54;102068.56;5024992;28;20030;-58
2023/04/10 00:21:05;;;;;;;14.30;10.15;;;;;;;10.47;99.59;102064.16;5024117;28;20035;-58
2023/04/10 00:23:33;;;;;;;14.50;9.40;;;;;;;10.52;99.46;102072.00;5024763;28;20033;-59
2023/04/10 00:25:59;;;;;;;17.73;10.15;;;;;;;10.46;99.06;102062.44;5025587;28;20025;-59
2023/04/10 00:28:24;;;;;;;18.25;9.25;;;;;;;10.41;99.47;102062.44;5025124;28;20022;-58
2023/04/10 00:30:50;;;;;;;11.98;8.93;;;;;;;10.42;99.38;102066.81;5024301;28;20021;-59
2023/04/10 00:33:15;;;;;;;14.32;9.30;;;;;;;10.45;99.36;102060.66;5025814;28;20025;-57
2023/04/10 00:35:40;;;;;;;13.35;9.10;;;;;;;10.45;99.59;102060.66;5025949;28;20599;-56
2023/04/10 00:38:05;;;;;;;13.18;9.88;;;;;;;10.42;99.70;102065.97;5028698;28;20037;-61
2023/04/10 00:40:31;;;;;;;12.13;8.95;;;;;;;10.31;100.00;102048.53;5026552;28;20037;-59
2023/04/10 00:42:56;;;;;;;13.18;9.30;;;;;;;10.36;100.00;102061.66;5027989;28;20065;-55
2023/04/10 00:45:22;;;;;;;13.05;9.10;;;;;;;10.30;100.00;102052.03;5026726;28;20465;-62
2023/04/10 00:47:47;;;;;;;14.75;9.95;;;;;;;10.29;100.00;102050.31;5027578;28;20021;-57
2023/04/10 00:50:12;;;;;;;15.10;10.23;;;;;;;10.21;100.00;102042.50;5026693;28;20041;-55
2023/04/10 00:52:38;;;;;;;13.75;9.77;;;;;;;10.27;100.00;102045.97;5028516;28;20056;-61
2023/04/10 00:55:03;;;;;;;15.23;10.43;;;;;;;10.24;100.00;102046.88;5026159;28;20082;-60
2023/04/10 00:57:29;;;;;;;14.90;9.40;;;;;;;10.16;100.00;102032.94;5027696;28;20032;-59
2023/04/10 00:59:54;;;;;;;14.73;10.27;;;;;;;10.06;100.00;102029.56;5027630;28;20519;-60
2023/04/10 01:02:20;;;;;;;13.20;9.32;;;;;;;10.08;100.00;102038.28;5086494;23;20811;-63
2023/04/10 01:04:45;;;;;;;14.15;9.85;;;;;;;10.03;100.00;102033.09;5027888;28;20029;-61
2023/04/10 01:07:21;;;;;;;19.23;10.32;;;;;;;9.97;100.00;102018.22;5029160;28;20021;-61
2023/04/10 01:09:54;;;;;;;14.63;10.02;;;;;;;9.85;100.00;102021.03;5027647;28;20100;-61
2023/04/10 01:12:40;;;;;;;14.40;10.07;;;;;;;9.89;100.00;102001.66;5029595;28;20087;-61
2023/04/10 01:15:15;;;;;;;13.73;9.90;;;;;;;9.84;100.00;102006.09;5029253;28;20037;-59
2023/04/10 01:17:46;;;;;;;20.17;9.70;;;;;;;9.78;100.00;102001.78;5028661;28;20014;-59
2023/04/10 01:20:26;;;;;;;14.25;10.55;;;;;;;9.73;100.00;101998.34;5027886;28;20033;-57
2023/04/10 01:23:29;;;;;;;12.70;9.43;;;;;;;9.71;100.00;102001.00;5029521;28;20453;-59
2023/04/10 01:26:05;;;;;;;13.13;9.13;;;;;;;9.67;100.00;101994.03;5028969;28;20155;-58
2023/04/10 01:28:59;;;;;;;12.65;9.73;;;;;;;9.68;100.00;101992.25;5027465;28;20040;-60
2023/04/10 01:31:35;;;;;;;14.95;10.13;;;;;;;9.57;100.00;101985.34;5027930;28;20495;-60
2023/04/10 01:34:06;;;;;;;16.65;9.90;;;;;;;9.59;100.00;101996.75;5027567;28;20022;-62
2023/04/10 01:36:36;;;;;;;14.52;10.18;;;;;;;9.54;100.00;101992.44;5027501;28;20033;-61
2023/04/10 01:39:02;;;;;;;14.55;9.23;;;;;;;9.51;100.00;101993.31;5027705;28;20373;-64
2023/04/10 01:41:28;;;;;;;13.73;9.60;;;;;;;9.56;100.00;101983.63;5028527;28;20167;-58
2023/04/10 01:43:54;;;;;;;14.52;9.75;;;;;;;9.57;100.00;101985.34;5026816;28;20055;-59
2023/04/10 01:46:21;;;;;;;13.50;9.93;;;;;;;9.37;100.00;101982.97;5028096;28;20109;-59
2023/04/10 01:48:48;;;;;;;15.65;9.77;;;;;;;9.45;100.00;101982.88;5026801;28;20471;-61
2023/04/10 01:51:15;;;;;;;14.23;10.30;;;;;;;9.46;100.00;101976.72;5010263;28;20080;-59
2023/04/10 01:53:42;;;;;;;12.93;9.75;;;;;;;9.33;100.00;101968.94;5027278;28;20033;-59
2023/04/10 01:56:08;;;;;;;18.20;12.30;;;;;;;9.43;100.00;101975.00;5027123;28;20021;-59
2023/04/10 01:58:36;;;;;;;13.93;9.80;;;;;;;9.40;100.00;101967.16;5028061;28;20365;-60
2023/04/10 02:01:02;;;;;;;12.32;8.80;;;;;;;9.27;100.00;101973.41;5009909;28;20033;-62
2023/04/10 02:03:27;;;;;;;15.25;10.05;;;;;;;9.30;100.00;101974.25;5024792;28;20495;-58
2023/04/10 02:06:16;;;;;;;15.50;10.32;;;;;;;9.31;100.00;101970.75;5027457;28;20026;-58
2023/04/10 02:08:50;;;;;;;15.40;10.00;;;;;;;9.30;100.00;101968.13;5014356;28;20021;-56
2023/04/10 02:11:39;;;;;;;14.32;9.52;;;;;;;9.28;100.00;101970.78;5027316;28;20021;-61
2023/04/10 02:14:06;;;;;;;15.68;10.82;;;;;;;9.24;100.00;101969.03;5047929;28;20056;-59
2023/04/10 02:16:32;;;;;;;13.13;9.63;;;;;;;9.22;100.00;101973.47;5014450;28;20601;-59
2023/04/10 02:18:59;;;;;;;13.00;9.48;;;;;;;9.25;100.00;101970.81;5030149;28;20032;-60
2023/04/10 02:21:25;;;;;;;16.92;10.82;;;;;;;9.20;100.00;101967.34;5030115;28;20075;-59
2023/04/10 02:23:51;;;;;;;13.57;10.32;;;;;;;9.20;100.00;101962.06;5048135;28;20037;-61
2023/04/10 02:26:16;;;;;;;13.95;10.50;;;;;;;9.16;100.00;101966.50;5047701;28;20043;-57
2023/04/10 02:28:41;;;;;;;14.60;10.13;;;;;;;9.21;100.00;101964.69;5047600;28;20036;-62
2023/04/10 02:31:07;;;;;;;13.32;9.75;;;;;;;9.19;100.00;101965.59;5048265;28;20040;-59
2023/04/10 02:33:32;;;;;;;12.65;9.52;;;;;;;9.25;100.00;101964.66;5048157;28;20025;-58
2023/04/10 02:35:59;;;;;;;16.23;9.68;;;;;;;9.17;100.00;101968.25;5047092;28;20086;-57
2023/04/10 02:38:25;;;;;;;13.55;9.52;;;;;;;9.18;100.00;101971.75;5046890;28;20108;-59
2023/04/10 02:40:50;;;;;;;15.13;10.00;;;;;;;9.14;100.00;101978.78;5048340;28;20111;-58
2023/04/10 02:43:15;;;;;;;15.45;8.98;;;;;;;9.10;100.00;101972.66;5047881;28;20043;-58
2023/04/10 02:45:41;;;;;;;13.25;9.55;;;;;;;9.13;100.00;101978.81;5047574;28;20033;-60
2023/04/10 02:48:06;;;;;;;13.73;9.30;;;;;;;9.13;100.00;101986.69;5048139;28;20029;-59
2023/04/10 02:50:32;;;;;;;15.20;9.73;;;;;;;9.09;100.00;101976.19;5046506;28;20033;-60
2023/04/10 02:52:57;;;;;;;14.35;9.07;;;;;;;9.07;100.00;101983.25;5048350;28;20037;-62
2023/04/10 02:55:23;;;;;;;14.60;10.20;;;;;;;9.08;100.00;101982.34;5047572;28;20070;-61
2023/04/10 02:57:48;;;;;;;12.20;8.68;;;;;;;9.08;100.00;101978.84;5048038;28;20055;-56
2023/04/10 03:00:14;;;;;;;13.23;9.55;;;;;;;9.06;100.00;101984.09;5046827;28;20040;-59
2023/04/10 03:02:39;;;;;;;16.35;9.35;;;;;;;9.08;100.00;101979.72;5047456;28;20067;-60
2023/04/10 03:05:07;;;;;;;12.57;9.35;;;;;;;9.06;100.00;101976.22;5045871;28;20335;-59
2023/04/10 03:07:32;;;;;;;11.98;8.45;;;;;;;9.07;100.00;101972.72;5047452;28;20055;-61
2023/04/10 03:09:59;;;;;;;14.15;9.20;;;;;;;9.02;100.00;101974.50;5047082;28;20069;-60
2023/04/10 03:12:24;;;;;;;11.95;8.82;;;;;;;9.01;100.00;101967.53;5046401;28;20056;-62
2023/04/10 03:14:49;;;;;;;11.50;8.93;;;;;;;9.01;100.00;101962.25;5045465;28;20035;-58
2023/04/10 03:17:15;;;;;;;12.00;8.90;;;;;;;9.00;100.00;101959.66;5045770;28;20035;-59
2023/04/10 03:19:40;;;;;;;15.27;9.13;;;;;;;9.00;100.00;101957.88;5045033;28;20044;-57
2023/04/10 03:22:06;;;;;;;13.20;9.00;;;;;;;9.01;100.00;101959.63;5046023;28;20429;-62
2023/04/10 03:24:31;;;;;;;10.77;8.73;;;;;;;8.97;100.00;101960.53;5027424;28;20108;-61
2023/04/10 03:26:57;;;;;;;12.00;8.38;;;;;;;9.03;100.00;101955.22;5046848;28;20067;-59
2023/04/10 03:29:22;;;;;;;10.43;8.02;;;;;;;9.09;100.00;101951.66;5027882;28;20075;-57
2023/04/10 03:31:48;;;;;;;11.70;8.50;;;;;;;9.06;100.00;101949.06;5046794;28;20024;-60
2023/04/10 03:34:13;;;;;;;10.43;7.90;;;;;;;9.15;100.00;101950.75;5045162;28;20075;-59
2023/04/10 03:36:38;;;;;;;11.43;8.00;;;;;;;9.10;100.00;101943.75;5046388;28;20044;-60
2023/04/10 03:39:04;;;;;;;10.88;8.15;;;;;;;9.16;100.00;101942.84;5045515;28;20087;-58
2023/04/10 03:41:30;;;;;;;11.25;7.45;;;;;;;9.22;100.00;101939.28;5047091;28;20029;-57
2023/04/10 03:43:55;;;;;;;11.23;8.02;;;;;;;9.26;100.00;101932.19;5045925;28;20136;-58
2023/04/10 03:46:21;;;;;;;9.80;7.00;;;;;;;9.27;100.00;101924.28;5046577;28;20020;-56
2023/04/10 03:48:48;;;;;;;11.07;7.45;;;;;;;9.29;100.00;101919.91;5046362;28;20017;-57
2023/04/10 03:51:13;;;;;;;10.20;7.32;;;;;;;9.29;100.00;101914.63;5046054;28;20466;-58
2023/04/10 03:53:39;;;;;;;8.50;6.95;;;;;;;9.25;100.00;101917.31;5028948;28;20523;-59
2023/04/10 03:56:05;;;;;;;10.05;7.45;;;;;;;9.27;100.00;101910.28;5047096;28;20480;-60
2023/04/10 03:58:30;;;;;;;10.23;7.80;;;;;;;9.33;100.00;101910.22;5046470;28;20074;-64
2023/04/10 04:00:55;;;;;;;9.70;7.47;;;;;;;9.36;100.00;101907.53;5046908;28;20016;-59
2023/04/10 04:03:21;;;;;;;9.88;7.38;;;;;;;9.45;100.00;101904.81;5046564;28;20053;-58
2023/04/10 04:05:46;;;;;;;11.13;8.10;;;;;;;9.40;100.00;101905.75;5046529;28;20052;-58
2023/04/10 04:08:12;;;;;;;12.52;7.43;;;;;;;9.40;100.00;101914.53;5046398;28;20037;-59
2023/04/10 04:10:38;;;;;;;9.18;7.07;;;;;;;9.35;100.00;101911.94;5042037;28;20061;-58
2023/04/10 04:13:03;;;;;;;12.10;7.65;;;;;;;9.40;100.00;101903.13;5038385;28;20052;-59
2023/04/10 04:15:28;;;;;;;10.43;7.47;;;;;;;9.42;100.00;101893.47;5046067;28;20130;-57
2023/04/10 04:17:56;;;;;;;9.40;7.00;;;;;;;9.40;100.00;101901.38;5046579;28;20017;-60
2023/04/10 04:20:21;;;;;;;10.75;7.15;;;;;;;9.43;100.00;101901.34;5045330;28;20140;-59
2023/04/10 04:22:46;;;;;;;11.23;7.95;;;;;;;9.43;100.00;101895.19;5053811;28;20107;-61
2023/04/10 04:25:12;;;;;;;9.50;7.10;;;;;;;9.45;100.00;101893.44;5051159;28;20049;-59
2023/04/10 04:27:37;;;;;;;8.18;6.93;;;;;;;9.42;100.00;101889.06;5038624;28;20109;-58
2023/04/10 04:30:05;;;;;;;8.70;6.32;;;;;;;9.38;100.00;101883.84;5040624;28;20028;-61
2023/04/10 04:32:30;;;;;;;8.60;6.95;;;;;;;9.39;100.00;101885.59;5037562;28;20085;-63
2023/04/10 04:34:55;;;;;;;9.48;7.30;;;;;;;9.42;100.00;101880.31;5049412;28;20722;-60
2023/04/10 04:37:21;;;;;;;8.82;6.57;;;;;;;9.44;100.00;101881.16;5050858;28;20048;-57
2023/04/10 04:39:46;;;;;;;10.02;7.15;;;;;;;9.46;100.00;101874.97;5051020;28;20045;-63
2023/04/10 04:42:11;;;;;;;8.48;6.65;;;;;;;9.47;100.00;101870.59;5049772;28;20053;-61
2023/04/10 04:44:37;;;;;;;10.32;7.47;;;;;;;9.44;100.00;101866.25;5049944;28;20120;-59
2023/04/10 04:47:02;;;;;;;8.90;7.10;;;;;;;9.47;100.00;101873.22;5049735;28;20060;-60
2023/04/10 04:49:27;;;;;;;8.38;6.88;;;;;;;9.50;100.00;101877.56;5050004;28;20044;-57
2023/04/10 04:51:53;;;;;;;9.23;6.53;;;;;;;9.49;100.00;101874.09;5050149;28;20064;-61
2023/04/10 04:54:18;;;;;;;8.73;6.65;;;;;;;9.55;100.00;101865.22;5049741;28;20075;-57
2023/04/10 04:56:43;;;;;;;7.97;6.25;;;;;;;9.56;100.00;101867.84;5049382;28;20025;-60
2023/04/10 04:59:09;;;;;;;8.18;6.45;;;;;;;9.59;100.00;101862.53;5049705;28;20083;-58
2023/04/10 05:01:34;;;;;;;8.13;6.35;;;;;;;9.65;100.00;101863.34;5049001;28;20037;-60
2023/04/10 05:04:00;;;;;;;13.13;6.93;;;;;;;9.61;100.00;101868.63;5049745;28;21057;-59
2023/04/10 05:06:25;;;;;;;9.80;6.72;;;;;;;9.61;100.00;101870.41;5050726;28;20025;-59
2023/04/10 05:08:51;;;;;;;9.60;6.93;;;;;;;9.65;100.00;101864.22;5050314;28;20433;-53
2023/04/10 05:11:17;;;;;;;10.13;6.97;;;;;;;9.69;100.00;101865.06;5048752;28;20509;-59
2023/04/10 05:13:42;;;;;;;10.52;6.93;;;;;;;9.73;100.00;101856.22;5047863;28;20033;-56
2023/04/10 05:16:07;;;;;;;10.40;7.28;;;;;;;9.73;100.00;101856.22;5048752;28;20082;-59
2023/04/10 05:18:33;;;;;;;8.32;6.80;;;;;;;9.61;100.00;101860.75;5049768;28;20032;-58
2023/04/10 05:20:59;;;;;;;9.07;7.05;;;;;;;9.66;100.00;101859.84;5049517;28;20102;-55
2023/04/10 05:23:24;;;;;;;8.77;6.68;;;;;;;9.72;100.00;101857.09;5051807;28;20045;-60
2023/04/10 05:25:50;;;;;;;8.98;6.47;;;;;;;9.70;100.00;101864.16;5053246;28;20058;-55
2023/04/10 05:28:15;;;;;;;8.73;6.60;;;;;;;9.77;100.00;101859.66;5065074;28;20470;-60
2023/04/10 05:30:40;;;;;;;8.73;6.97;;;;;;;9.80;100.00;101860.50;5051584;28;20028;-55
2023/04/10 05:33:06;;;;;;;9.20;7.18;;;;;;;9.83;100.00;101867.47;5049334;28;20122;-62
2023/04/10 05:35:31;;;;;;;8.40;7.05;;;;;;;9.80;100.00;101868.41;5048715;28;20100;-59
2023/04/10 05:37:57;;;;;;;8.52;6.68;;;;;;;9.78;100.00;101867.53;5049323;28;20021;-57
2023/04/10 05:40:23;;;;;;;8.93;6.95;;;;;;;9.81;100.00;101864.03;5049332;28;20049;-59
2023/04/10 05:42:48;;;;;;;8.07;6.95;;;;;;;9.81;100.00;101870.13;5049197;28;20056;-58
2023/04/10 05:45:13;;;;;;;10.38;6.95;;;;;;;9.84;100.00;101866.56;5048263;28;20495;-60
2023/04/10 05:47:39;;;;;;;9.48;7.22;;;;;;;9.75;100.00;101862.31;5031553;28;20025;-61
2023/04/10 05:50:04;;;;;;;7.80;6.32;;;;;;;9.83;100.00;101855.19;5049004;28;20097;-62
2023/04/10 05:52:30;;;;;;;8.25;6.60;;;;;;;9.92;100.00;101851.56;5030944;28;20052;-58
2023/04/10 05:54:55;;;;;;;7.05;6.10;;;;;;;9.95;100.00;101851.50;5049765;28;20057;-60
2023/04/10 05:57:20;;;;;;;7.78;5.82;;;;;;;9.89;100.00;101850.72;5049011;28;20117;-62
2023/04/10 05:59:46;;;;;;;9.23;6.63;;;;;;;9.93;100.00;101847.19;5049066;28;20056;-60
2023/04/10 06:02:11;;;;;;;8.75;7.10;;;;;;;9.96;100.00;101844.47;5048803;28;20048;-59
2023/04/10 06:04:36;;;;;;;8.05;6.32;;;;;;;9.95;100.00;101841.00;5048802;28;20052;-59
2023/04/10 06:07:02;;;;;;;9.98;6.93;;;;;;;10.03;100.00;101838.25;5048530;28;20112;-62
2023/04/10 06:09:27;;;;;;;9.40;6.53;;;;;;;10.03;100.00;101837.34;5049833;28;20033;-59
2023/04/10 06:11:52;;;;;;;8.45;7.13;;;;;;;10.00;100.00;101827.75;5048558;28;20406;-60
2023/04/10 06:14:19;;;;;;;9.13;7.10;;;;;;;10.06;100.00;101830.25;5048267;28;20048;-60
2023/04/10 06:16:44;;;;;;;10.88;7.32;;;;;;;10.08;100.00;101833.75;5048074;28;20029;-58
2023/04/10 06:19:10;;;;;;;14.57;7.47;;;;;;;10.10;100.00;101815.28;5047673;28;20025;-58
2023/04/10 06:21:35;;;;;;;10.80;7.45;;;;;;;10.04;100.00;101813.63;5047800;28;20360;-58
2023/04/10 06:24:01;;;;;;;8.95;6.72;;;;;;;10.01;100.00;101812.81;5047610;28;20029;-60
2023/04/10 06:26:26;;;;;;;8.98;7.22;;;;;;;9.96;100.00;101802.34;5047506;28;20412;-59
2023/04/10 06:28:51;;;;;;;9.00;6.90;;;;;;;10.00;100.00;101801.41;5046649;28;20059;-60
2023/04/10 06:31:19;;;;;;;11.00;7.35;;;;;;;10.08;100.00;101794.25;5029024;28;20179;-60
2023/04/10 06:33:45;;;;;;;8.48;6.68;;;;;;;10.20;100.00;101787.91;5039784;28;20084;-60
2023/04/10 06:36:10;;;;;;;8.82;6.68;;;;;;;10.27;100.00;101787.81;5039884;28;20572;-59
2023/04/10 06:38:36;;;;;;;7.45;6.47;;;;;;;10.31;100.00;101787.72;5033940;28;20374;-58
2023/04/10 06:41:03;;;;;;;9.20;7.22;;;;;;;10.33;100.00;101780.66;5046761;28;20044;-58
2023/04/10 06:43:30;;;;;;;9.02;6.70;;;;;;;10.30;100.00;101777.22;5046631;28;20018;-59
2023/04/10 06:45:56;;;;;;;11.48;6.40;;;;;;;10.46;100.00;101773.44;5047393;28;20021;-59
2023/04/10 06:48:21;;;;;;;9.50;6.97;;;;;;;10.45;100.00;101771.69;5028240;28;20036;-60
2023/04/10 06:50:47;;;;;;;9.40;6.47;;;;;;;10.55;100.00;101761.88;5031793;28;20026;-59
2023/04/10 06:53:12;;;;;;;8.68;7.10;;;;;;;10.73;100.00;101762.41;5034123;28;20502;-60
2023/04/10 06:55:37;;;;;;;10.80;6.97;;;;;;;10.79;100.00;101758.78;5046759;28;20063;-58
2023/04/10 06:58:03;;;;;;;8.10;6.85;;;;;;;10.68;100.00;101753.69;5045703;28;20067;-60
2023/04/10 07:00:29;;;;;;;9.48;7.35;;;;;;;10.74;100.00;101749.19;5045766;28;20033;-56
2023/04/10 07:02:54;;;;;;;9.07;7.32;;;;;;;10.75;100.00;101747.44;5046341;28;20056;-58
2023/04/10 07:05:20;;;;;;;9.35;7.03;;;;;;;10.73;99.90;101747.47;5045768;28;20032;-60
2023/04/10 07:07:46;;;;;;;9.30;6.88;;;;;;;10.89;99.40;101743.66;5046036;28;20031;-58
2023/04/10 07:10:12;;;;;;;7.88;6.38;;;;;;;11.01;100.00;101747.81;5045560;28;20342;-59
2023/04/10 07:12:37;;;;;;;11.38;7.20;;;;;;;11.03;99.28;101754.78;5046500;28;20029;-58
2023/04/10 07:15:03;;;;;;;12.27;7.60;;;;;;;11.01;98.85;101745.16;5045634;28;20478;-59
2023/04/10 07:17:28;;;;;;;10.48;7.32;;;;;;;11.03;99.88;101741.59;5046631;28;20427;-58
2023/04/10 07:19:53;;;;;;;8.38;7.05;;;;;;;11.17;99.16;101740.41;5044965;28;20028;-59
2023/04/10 07:22:19;;;;;;;9.65;7.50;;;;;;;11.19;98.03;101733.31;5045316;28;20210;-58
2023/04/10 07:24:44;;;;;;;11.40;7.35;;;;;;;11.03;98.32;101741.59;5046210;28;20025;-60
2023/04/10 07:27:11;;;;;;;9.25;7.00;;;;;;;11.03;99.01;101735.44;5045822;28;20025;-59
2023/04/10 07:29:37;;;;;;;12.95;7.10;;;;;;;11.18;98.93;101728.97;5045433;28;20051;-59
2023/04/10 07:32:02;;;;;;;8.82;7.32;;;;;;;11.14;98.32;101722.03;5045348;28;20487;-59
2023/04/10 07:34:27;;;;;;;9.10;6.72;;;;;;;11.16;97.69;101714.91;5046048;28;20036;-58
2023/04/10 07:36:53;;;;;;;8.25;7.07;;;;;;;11.22;98.13;101726.22;5045447;28;20025;-57
2023/04/10 07:39:18;;;;;;;8.07;6.55;;;;;;;11.24;97.55;101713.88;5045486;28;20039;-57
2023/04/10 07:41:44;;;;;;;9.88;6.90;;;;;;;11.24;97.82;101707.72;5045846;28;20025;-60
2023/04/10 07:44:09;;;;;;;9.38;6.65;;;;;;;11.37;97.51;101711.81;5045218;28;20670;-60
2023/04/10 07:46:35;;;;;;;8.18;6.60;;;;;;;11.52;96.54;101699.16;5027744;28;20426;-60
2023/04/10 07:49:00;;;;;;;9.38;7.50;;;;;;;11.52;95.99;101707.06;5045311;28;20029;-63
2023/04/10 07:51:26;;;;;;;10.63;7.25;;;;;;;11.75;93.41;101688.00;5045833;28;20104;-59
2023/04/10 07:53:51;;;;;;;8.88;7.10;;;;;;;11.80;94.40;101695.81;5027634;28;20111;-59
2023/04/10 07:56:18;;;;;;;8.55;7.10;;;;;;;11.74;94.40;101685.44;5045049;28;20109;-59
2023/04/10 07:58:44;;;;;;;8.38;6.75;;;;;;;11.74;95.42;101681.00;5044557;28;20037;-62
2023/04/10 08:01:09;;;;;;;9.32;6.75;;;;;;;11.65;94.95;101683.03;5045239;28;20023;-60
2023/04/10 08:03:42;;;;;;;10.00;7.60;;;;;;;11.69;96.03;101675.00;5044138;28;20412;-58
2023/04/10 08:06:09;;;;;;;8.10;6.82;;;;;;;11.70;95.17;101665.28;5031650;28;20025;-60
2023/04/10 08:08:36;;;;;;;10.38;7.10;;;;;;;11.83;94.43;101656.13;5044707;28;20044;-60
2023/04/10 08:11:02;;;;;;;8.60;7.00;;;;;;;11.93;95.07;101659.41;5044830;28;20017;-63
2023/04/10 08:13:28;;;;;;;7.97;5.97;;;;;;;12.03;96.26;101654.75;5044896;28;20021;-59
2023/04/10 08:15:53;;;;;;;7.90;6.65;;;;;;;12.09;95.25;101659.91;5052133;28;20012;-59
2023/04/10 08:18:18;;;;;;;7.82;6.82;;;;;;;12.04;94.44;101656.47;5050807;28;20474;-60
2023/04/10 08:20:46;;;;;;;9.52;6.70;;;;;;;12.09;94.36;101649.34;5045066;28;20898;-59
2023/04/10 08:23:12;;;;;;;8.23;6.90;;;;;;;12.09;94.79;101651.97;5044545;28;20128;-61
2023/04/10 08:25:37;;;;;;;8.13;6.90;;;;;;;12.23;94.69;101650.72;5044778;28;20107;-60
2023/04/10 08:28:02;;;;;;;8.52;7.18;;;;;;;12.07;95.87;101645.84;5033660;28;20036;-61
2023/04/10 08:30:28;;;;;;;9.65;7.45;;;;;;;12.23;93.63;101645.44;5036878;28;20026;-60
2023/04/10 08:32:53;;;;;;;9.25;7.00;;;;;;;12.22;92.64;101649.84;5045613;28;20033;-57
2023/04/10 08:35:18;;;;;;;9.00;7.43;;;;;;;12.26;92.44;101640.06;5044000;28;20029;-57
2023/04/10 08:37:44;;;;;;;9.68;6.95;;;;;;;12.27;93.29;101641.81;5026881;28;20032;-57
2023/04/10 08:40:09;;;;;;;8.73;7.05;;;;;;;12.50;91.67;101624.41;5044786;28;20391;-60
2023/04/10 08:42:35;;;;;;;8.82;6.95;;;;;;;12.71;90.34;101629.97;5026920;28;20661;-55
2023/04/10 08:45:00;;;;;;;8.52;6.65;;;;;;;12.73;90.38;101630.78;5030842;28;20021;-63
2023/04/10 08:47:27;;;;;;;8.68;6.38;;;;;;;12.85;91.12;101621.59;5045617;28;20021;-57
2023/04/10 08:49:55;;;;;;;8.02;6.88;;;;;;;13.01;89.84;101612.28;5026702;28;20185;-59
2023/04/10 08:52:23;;;;;;;11.35;7.50;;;;;;;13.10;90.16;101600.53;5044348;28;20037;-58
2023/04/10 08:54:57;;;;;;;11.38;6.88;;;;;;;13.33;89.32;101598.06;5044561;28;20029;-60
2023/04/10 08:57:22;;;;;;;8.80;6.43;;;;;;;13.48;88.92;101601.94;5026576;28;20052;-62
2023/04/10 08:59:50;;;;;;;7.60;6.60;;;;;;;13.40;89.01;101597.78;5044135;28;20494;-60
2023/04/10 09:02:16;;;;;;;9.60;7.82;;;;;;;13.37;88.57;101599.69;5044499;28;20080;-60
2023/04/10 09:04:54;;;;;;;9.05;6.97;;;;;;;13.49;89.06;101595.75;5044224;28;20478;-58
2023/04/10 09:07:20;;;;;;;10.15;7.32;;;;;;;13.52;87.04;101593.88;5042140;28;20025;-58
2023/04/10 09:09:45;;;;;;;11.10;7.00;;;;;;;13.60;87.68;101587.47;5007107;28;20121;-59
2023/04/10 09:12:12;;;;;;;8.07;6.50;;;;;;;13.35;87.49;101589.16;5024594;28;20108;-60
2023/04/10 09:14:39;;;;;;;8.00;6.72;;;;;;;13.59;87.91;101585.75;5026476;28;20087;-59
2023/04/10 09:17:20;;;;;;;9.13;6.80;;;;;;;13.45;88.87;101586.19;5044332;28;20384;-58
2023/04/10 09:19:53;;;;;;;9.40;6.93;;;;;;;13.60;87.66;101583.03;5043792;28;20025;-63
2023/04/10 09:22:30;;;;;;;8.63;5.97;;;;;;;14.01;87.09;101577.19;5035210;28;20025;-58
2023/04/10 09:24:58;;;;;;;9.05;6.40;;;;;;;14.19;85.67;101580.09;5047608;28;20423;-58
2023/04/10 09:27:30;;;;;;;9.80;7.03;;;;;;;14.01;84.70;101574.56;5047944;28;20036;-59
2023/04/10 09:29:55;;;;;;;7.50;6.70;;;;;;;13.94;85.97;101564.22;5048042;28;20021;-59
2023/04/10 09:32:41;;;;;;;8.27;6.40;;;;;;;13.76;84.76;101548.09;5047911;28;20290;-58
2023/04/10 09:35:14;;;;;;;7.97;6.25;;;;;;;13.66;85.10;101549.34;5047401;28;20056;-57
2023/04/10 09:37:41;;;;;;;8.35;6.50;;;;;;;13.76;86.77;101545.44;5047923;28;20020;-57
2023/04/10 09:40:19;;;;;;;11.07;7.13;;;;;;;13.77;86.26;101542.72;5047667;28;20064;-63
2023/04/10 09:42:44;;;;;;;8.30;7.20;;;;;;;13.87;86.04;101537.94;5047951;28;20229;-57
2023/04/10 09:45:10;;;;;;;8.40;7.03;;;;;;;13.90;86.43;101543.13;5047010;28;20395;-60
2023/04/10 09:47:36;;;;;;;8.90;7.63;;;;;;;13.98;85.27;101526.97;5047805;28;20100;-59
2023/04/10 09:50:02;;;;;;;9.52;7.68;;;;;;;14.06;84.15;101537.25;5046466;28;20090;-58
2023/04/10 09:52:37;;;;;;;8.85;7.65;;;;;;;14.15;82.65;101534.25;5047810;28;20462;-56
2023/04/10 09:55:05;;;;;;;8.63;6.85;;;;;;;14.19;83.19;101531.50;5047486;28;20013;-58
2023/04/10 09:57:32;;;;;;;14.10;8.52;;;;;;;14.12;80.36;101534.38;5047837;28;20079;-63
2023/04/10 09:59:59;;;;;;;11.93;9.13;;;;;;;14.10;81.55;101517.69;5047813;28;20021;-60
2023/04/10 10:02:30;;;;;;;13.27;9.80;;;;;;;14.26;81.81;101517.09;5047604;28;20045;-59
2023/04/10 10:04:59;;;;;;;15.90;10.27;;;;;;;14.09;81.98;101513.28;5046768;28;20459;-59
2023/04/10 10:07:25;;;;;;;;;;;;;;;14.38;81.15;101505.13;5029342;28;20533;-59
2023/04/10 10:09:51;;;;;;;12.68;9.02;;;;;;;14.49;79.54;101508.25;5043391;28;19963;-57
2023/04/10 10:12:26;;;;;;;16.10;8.55;;;;;;;14.27;81.36;101503.78;5041664;28;20064;-60
2023/04/10 10:15:19;;;;;;;9.80;7.85;;;;;;;14.58;79.77;101501.72;5033362;28;20479;-54
2023/04/10 10:17:51;;;;;;;9.93;6.93;;;;;;;14.83;80.65;101494.53;5053246;28;20400;-62
2023/04/10 10:20:17;;;;;;;10.18;7.45;;;;;;;14.83;80.37;101484.81;5033648;28;20033;-58
2023/04/10 10:22:44;;;;;;;8.88;7.35;;;;;;;15.08;80.40;101473.16;5023103;28;20025;-61
2023/04/10 10:25:09;;;;;;;8.38;7.13;;;;;;;15.28;78.16;101482.06;5024700;28;20025;-58
2023/04/10 10:27:39;;;;;;;10.05;7.55;;;;;;;15.47;78.37;101483.91;5043100;28;20028;-57
2023/04/10 10:30:05;;;;;;;12.25;7.90;;;;;;;15.75;76.46;101480.00;5042880;28;20037;-59
2023/04/10 10:32:31;;;;;;;11.88;8.32;;;;;;;15.83;74.40;101469.03;5011636;28;20025;-61
2023/04/10 10:34:56;;;;;;;12.32;9.05;;;;;;;15.59;75.99;101477.19;5018218;28;20630;-59
2023/04/10 10:37:22;;;;;;;12.13;8.38;;;;;;;15.58;76.16;101467.47;5017151;28;20624;-60
2023/04/10 10:40:23;;;;;;;12.10;8.60;;;;;;;15.69;77.93;101456.38;5041907;28;20021;-61
2023/04/10 10:43:22;;;;;;;16.17;10.15;;;;;;;15.65;75.04;101427.28;5020498;28;20556;-57
2023/04/10 10:45:53;;;;;;;18.70;11.18;;;;;;;15.60;75.43;101425.78;5042192;28;20040;-58
2023/04/10 10:48:18;;;;;;;13.73;10.10;;;;;;;15.88;74.93;101414.72;5017229;28;20056;-58
2023/04/10 10:50:59;;;;;;;11.32;8.75;;;;;;;16.07;76.01;101416.53;5034365;28;20526;-56
2023/04/10 10:53:42;;;;;;;15.55;9.00;;;;;;;16.33;74.05;101403.78;5036481;28;20018;-59
2023/04/10 10:56:21;;;;;;;12.57;9.02;;;;;;;16.42;73.87;101406.00;5036804;28;20634;-60
2023/04/10 10:58:51;;;;;;;14.10;8.55;;;;;;;16.52;72.96;101405.50;5037805;28;20025;-60
2023/04/10 11:01:17;;;;;;;13.98;8.98;;;;;;;16.71;71.59;101392.16;5035434;28;20060;-62
2023/04/10 11:03:45;;;;;;;11.43;8.38;;;;;;;16.97;71.17;101399.69;5036077;28;20040;-59
2023/04/10 11:06:15;;;;;;;12.88;8.95;;;;;;;17.11;72.28;101386.56;5043690;28;20025;-55
2023/04/10 11:08:45;;;;;;;17.15;10.63;;;;;;;17.36;70.32;101382.59;5039160;28;20610;-57
2023/04/10 11:11:15;;;;;;;22.90;13.48;;;;;;;16.92;70.74;101381.34;5037940;28;20017;-59
2023/04/10 11:13:56;;;;;;;21.48;12.80;;;;;;;17.27;70.53;101369.75;5037224;28;20475;-61
2023/04/10 11:16:24;;;;;;;16.00;11.65;;;;;;;17.38;67.88;101371.84;5037320;28;20125;-56
2023/04/10 11:18:49;;;;;;;13.55;9.52;;;;;;;17.33;69.67;101365.94;5017864;28;20025;-60
2023/04/10 11:21:15;;;;;;;11.32;8.90;;;;;;;17.43;67.81;101360.00;5043175;28;20121;-60